Time;durP1;ratioP1;P1;durP2;ratioP2;P2;SDS_P1;SDS_P2;PMS_P1;PMS_P2;Temp;Humidity;BMP_temperature;BMP_pressure;BME280_temperature;BME280_humidity;BME280_pressure;Samples;Min_cycle;Max_cycle;Signal;HPM_P1;HPM_P2
2021/09/17 15:43:41;;;;;;;0.95;0.50;;;;;;;;;;5123396;27;20441;-84
2021/09/17 15:46:09;;;;;;;0.35;0.35;;;;;;;;;;5108510;27;20409;-84
2021/09/17 15:48:38;;;;;;;0.40;0.40;;;;;;;;;;5119212;27;20408;-85
2021/09/17 15:51:06;;;;;;;0.50;0.47;;;;;;;;;;5129452;27;20410;-84
2021/09/17 15:53:35;;;;;;;0.40;0.40;;;;;;;;;;5124769;27;20454;-84
2021/09/17 15:56:03;;;;;;;2.00;0.60;;;;;;;;;;5112614;27;20904;-85
2021/09/17 15:58:32;;;;;;;1.13;0.55;;;;;;;;;;5107235;27;20411;-85
2021/09/17 16:01:06;;;;;;;1.25;0.55;;;;;;;;;;5114597;27;20864;-85
2021/09/17 16:03:36;;;;;;;1.43;0.60;;;;;;;;;;5108225;27;20411;-85
2021/09/17 16:06:05;;;;;;;1.17;0.50;;;;;;;;;;5109310;27;20595;-85
2021/09/17 16:08:34;;;;;;;1.35;0.50;;;;;;;;;;5106918;27;20411;-84
2021/09/17 16:11:02;;;;;;;1.95;0.60;;;;;;;;;;5105699;27;20772;-83
2021/09/17 16:13:31;;;;;;;1.35;0.77;;;;;;;;;;5108067;27;20404;-85
2021/09/17 16:16:03;;;;;;;1.20;0.50;;;;;;;;;;5108028;27;20404;-86
2021/09/17 16:18:32;;;;;;;1.70;0.50;;;;;;;;;;5105550;27;21095;-84
2021/09/17 16:21:01;;;;;;;1.13;0.47;;;;;;;;;;5101109;27;20425;-84
2021/09/17 16:23:30;;;;;;;1.40;0.52;;;;;;;;;;5107377;27;20527;-85
2021/09/17 16:25:59;;;;;;;0.60;0.50;;;;;;;;;;5106566;27;20744;-85
2021/09/17 16:28:27;;;;;;;0.95;0.60;;;;;;;;;;5105768;27;20480;-85
2021/09/17 16:30:58;;;;;;;0.80;0.60;;;;;;;;;;5101202;27;20432;-84
2021/09/17 16:33:28;;;;;;;1.25;0.60;;;;;;;;;;5109874;27;20446;-84
2021/09/17 16:35:58;;;;;;;0.73;0.50;;;;;;;;;;5102925;27;20529;-83
2021/09/17 16:38:26;;;;;;;1.53;0.50;;;;;;;;;;5108167;27;20406;-86
2021/09/17 16:40:55;;;;;;;1.60;0.80;;;;;;;;;;5103012;27;20406;-84
2021/09/17 16:43:23;;;;;;;2.90;0.80;;;;;;;;;;5106032;27;21028;-84
2021/09/17 16:45:52;;;;;;;1.40;0.70;;;;;;;;;;5104672;27;20410;-84
2021/09/17 16:48:20;;;;;;;1.58;0.70;;;;;;;;;;5110681;27;20438;-84
2021/09/17 16:50:50;;;;;;;0.77;0.77;;;;;;;;;;5111542;27;20405;-84
2021/09/17 16:53:19;;;;;;;0.77;0.65;;;;;;;;;;5106261;27;20768;-85
2021/09/17 16:55:47;;;;;;;1.00;0.90;;;;;;;;;;5095343;27;20413;-84
2021/09/17 16:58:15;;;;;;;1.40;0.80;;;;;;;;;;5092781;27;21117;-83
2021/09/17 17:00:43;;;;;;;1.23;0.80;;;;;;;;;;5099600;27;20990;-84
2021/09/17 17:03:11;;;;;;;1.10;0.80;;;;;;;;;;5099609;27;20406;-84
2021/09/17 17:05:39;;;;;;;0.60;0.55;;;;;;;;;;5091362;27;20444;-84
2021/09/17 17:08:09;;;;;;;2.70;0.77;;;;;;;;;;5095124;27;20407;-85
2021/09/17 17:10:38;;;;;;;2.30;0.85;;;;;;;;;;5094848;27;20471;-84
2021/09/17 17:13:06;;;;;;;1.23;0.90;;;;;;;;;;5096319;27;20410;-83
2021/09/17 17:15:35;;;;;;;1.10;1.00;;;;;;;;;;5099196;27;20482;-85
2021/09/17 17:18:04;;;;;;;1.30;0.90;;;;;;;;;;5099057;27;20401;-83
2021/09/17 17:20:32;;;;;;;1.80;1.00;;;;;;;;;;5097174;27;20463;-83
2021/09/17 17:23:00;;;;;;;1.15;0.90;;;;;;;;;;5093769;27;20430;-83
2021/09/17 17:25:30;;;;;;;1.33;0.93;;;;;;;;;;5104732;27;20868;-83
2021/09/17 17:27:59;;;;;;;1.40;0.80;;;;;;;;;;5108181;27;20809;-85
2021/09/17 17:30:27;;;;;;;1.90;1.20;;;;;;;;;;5109181;27;20823;-84
2021/09/17 17:32:56;;;;;;;1.80;1.02;;;;;;;;;;5099205;27;20422;-84
2021/09/17 17:35:24;;;;;;;2.63;1.30;;;;;;;;;;5110627;27;20440;-84
2021/09/17 17:37:53;;;;;;;2.10;1.00;;;;;;;;;;5113883;27;20758;-84
2021/09/17 17:40:22;;;;;;;1.48;1.10;;;;;;;;;;5113891;27;20400;-84
2021/09/17 17:42:52;;;;;;;1.23;0.90;;;;;;;;;;5115936;27;20432;-84
2021/09/17 17:45:20;;;;;;;1.85;1.00;;;;;;;;;;5117142;27;20430;-84
2021/09/17 17:47:50;;;;;;;2.20;1.10;;;;;;;;;;5116125;27;20397;-84
2021/09/17 17:50:18;;;;;;;3.65;1.30;;;;;;;;;;5108349;27;20392;-80
2021/09/17 17:52:47;;;;;;;1.83;1.20;;;;;;;;;;5106921;27;20440;-85
2021/09/17 17:55:16;;;;;;;2.25;1.40;;;;;;;;;;5093372;27;20403;-84
2021/09/17 17:57:45;;;;;;;1.70;1.20;;;;;;;;;;5095587;27;20401;-85
2021/09/17 18:00:16;;;;;;;1.77;1.10;;;;;;;;;;5090876;27;20928;-85
2021/09/17 18:02:44;;;;;;;1.47;1.20;;;;;;;;;;5091016;27;20460;-85
2021/09/17 18:05:13;;;;;;;1.20;1.10;;;;;;;;;;5089994;27;20502;-86
2021/09/17 18:07:41;;;;;;;2.30;1.52;;;;;;;;;;5097336;27;21144;-84
2021/09/17 18:10:11;;;;;;;3.00;1.60;;;;;;;;;;5089968;27;20408;-85
2021/09/17 18:12:39;;;;;;;1.67;1.50;;;;;;;;;;5091108;27;20429;-84
2021/09/17 18:15:08;;;;;;;1.50;1.40;;;;;;;;;;5091468;27;20438;-84
2021/09/17 18:17:39;;;;;;;2.15;1.83;;;;;;;;;;5092488;27;20404;-84
2021/09/17 18:20:09;;;;;;;2.92;2.42;;;;;;;;;;5086673;27;20431;-85
2021/09/17 18:22:37;;;;;;;2.33;2.13;;;;;;;;;;5086128;27;21338;-84
2021/09/17 18:25:07;;;;;;;3.15;2.40;;;;;;;;;;5093364;27;21028;-84
2021/09/17 18:27:35;;;;;;;6.22;2.55;;;;;;;;;;5092203;27;20409;-85
2021/09/17 18:30:03;;;;;;;4.53;2.50;;;;;;;;;;5090378;27;20922;-85
2021/09/17 18:32:32;;;;;;;2.78;2.10;;;;;;;;;;5089009;27;20397;-85
2021/09/17 18:35:02;;;;;;;4.15;2.10;;;;;;;;;;5089236;27;21129;-84
2021/09/17 18:37:30;;;;;;;2.30;2.00;;;;;;;;;;5087496;27;20481;-83
2021/09/17 18:39:58;;;;;;;2.72;2.00;;;;;;;;;;5095932;27;20430;-85
2021/09/17 18:42:26;;;;;;;3.10;2.10;;;;;;;;;;5088203;27;20814;-84
2021/09/17 18:44:55;;;;;;;4.25;2.05;;;;;;;;;;5091965;27;20872;-85
2021/09/17 18:47:23;;;;;;;2.22;1.85;;;;;;;;;;5094246;27;20888;-84
2021/09/17 18:49:52;;;;;;;2.83;1.70;;;;;;;;;;5089268;27;20483;-83
2021/09/17 18:52:23;;;;;;;3.33;1.83;;;;;;;;;;5093241;27;20398;-84
2021/09/17 18:54:51;;;;;;;2.47;1.90;;;;;;;;;;5091450;27;20404;-84
2021/09/17 18:57:20;;;;;;;2.90;1.95;;;;;;;;;;5091028;27;20395;-85
2021/09/17 18:59:49;;;;;;;3.20;1.77;;;;;;;;;;5093744;27;21277;-83
2021/09/17 19:02:18;;;;;;;3.80;2.00;;;;;;;;;;5091872;27;20404;-84
2021/09/17 19:04:47;;;;;;;2.88;1.98;;;;;;;;;;5094043;27;20456;-84
2021/09/17 19:07:16;;;;;;;2.85;2.15;;;;;;;;;;5091418;27;20418;-84
2021/09/17 19:09:46;;;;;;;3.35;1.98;;;;;;;;;;5092817;27;20407;-83
2021/09/17 19:12:14;;;;;;;5.35;2.47;;;;;;;;;;5091133;27;20475;-84
2021/09/17 19:14:42;;;;;;;3.60;2.30;;;;;;;;;;5088598;27;20502;-84
2021/09/17 19:17:11;;;;;;;3.50;2.22;;;;;;;;;;5090506;27;20454;-83
2021/09/17 19:19:39;;;;;;;2.90;2.10;;;;;;;;;;5092341;27;20404;-84
2021/09/17 19:22:07;;;;;;;2.45;2.00;;;;;;;;;;5092744;27;20420;-85
2021/09/17 19:24:37;;;;;;;2.20;2.00;;;;;;;;;;5087596;27;20996;-85
2021/09/17 19:27:07;;;;;;;4.82;2.47;;;;;;;;;;5088592;27;20437;-84
2021/09/17 19:29:35;;;;;;;5.10;3.40;;;;;;;;;;5090456;27;20582;-83
2021/09/17 19:32:04;;;;;;;3.40;3.10;;;;;;;;;;5090834;27;20424;-84
2021/09/17 19:34:32;;;;;;;3.85;3.10;;;;;;;;;;5088217;27;20417;-83
2021/09/17 19:37:02;;;;;;;3.93;3.17;;;;;;;;;;5090840;27;20896;-84
2021/09/17 19:39:30;;;;;;;3.67;2.80;;;;;;;;;;5092279;28;20445;-84
2021/09/17 19:41:59;;;;;;;4.38;3.33;;;;;;;;;;5094812;28;20866;-84
2021/09/17 19:44:29;;;;;;;3.95;3.03;;;;;;;;;;5087922;28;20764;-83
2021/09/17 19:46:58;;;;;;;3.83;2.97;;;;;;;;;;5086150;28;20492;-84
2021/09/17 19:49:28;;;;;;;5.07;3.33;;;;;;;;;;5088282;28;20404;-83
2021/09/17 19:51:57;;;;;;;4.60;3.10;;;;;;;;;;5086049;28;20808;-85
2021/09/17 19:54:26;;;;;;;4.20;3.00;;;;;;;;;;5087171;28;20432;-84
2021/09/17 19:56:55;;;;;;;4.22;2.75;;;;;;;;;;5086622;28;20432;-83
2021/09/17 19:59:24;;;;;;;4.60;2.80;;;;;;;;;;5093499;28;20404;-83
2021/09/17 20:01:55;;;;;;;4.15;2.70;;;;;;;;;;5087991;28;20939;-83
2021/09/17 20:04:23;;;;;;;3.55;2.50;;;;;;;;;;5085523;28;20481;-84
2021/09/17 20:06:52;;;;;;;3.93;2.93;;;;;;;;;;5092705;27;20529;-84
2021/09/17 20:09:21;;;;;;;3.97;2.83;;;;;;;;;;5091830;27;20996;-84
2021/09/17 20:11:51;;;;;;;3.30;2.40;;;;;;;;;;5090536;27;21001;-83
2021/09/17 20:14:19;;;;;;;2.60;2.10;;;;;;;;;;5091468;28;20917;-84
2021/09/17 20:16:48;;;;;;;3.08;2.30;;;;;;;;;;5090984;28;20765;-83
2021/09/17 20:19:19;;;;;;;2.75;2.10;;;;;;;;;;5087558;28;20398;-83
2021/09/17 20:21:47;;;;;;;4.10;2.70;;;;;;;;;;5086996;28;20395;-84
2021/09/17 20:24:16;;;;;;;2.85;2.30;;;;;;;;;;5085824;28;20404;-84
2021/09/17 20:26:46;;;;;;;2.50;2.30;;;;;;;;;;5085203;28;20458;-84
2021/09/17 20:29:17;;;;;;;3.40;2.35;;;;;;;;;;5086199;27;20499;-83
2021/09/17 20:31:47;;;;;;;3.22;2.30;;;;;;;;;;5097077;27;20457;-83
2021/09/17 20:34:20;;;;;;;3.22;2.25;;;;;;;;;;5093064;27;20414;-83
2021/09/17 20:36:50;;;;;;;3.30;2.35;;;;;;;;;;5097870;27;20396;-84
2021/09/17 20:39:19;;;;;;;3.67;2.60;;;;;;;;;;5094967;27;20410;-84
2021/09/17 20:41:48;;;;;;;2.72;2.25;;;;;;;;;;5089525;27;21353;-84
2021/09/17 20:44:16;;;;;;;3.40;2.53;;;;;;;;;;5089038;27;20439;-83
2021/09/17 20:46:45;;;;;;;3.13;2.77;;;;;;;;;;5093837;27;20408;-84
2021/09/17 20:49:15;;;;;;;3.50;2.93;;;;;;;;;;5095368;27;20498;-86
2021/09/17 20:51:45;;;;;;;3.47;2.50;;;;;;;;;;5090552;27;20453;-86
2021/09/17 20:54:14;;;;;;;3.03;2.28;;;;;;;;;;5099693;27;20489;-85
2021/09/17 20:56:43;;;;;;;3.58;2.22;;;;;;;;;;5094025;27;20404;-83
2021/09/17 20:59:11;;;;;;;2.45;2.25;;;;;;;;;;5093622;27;20497;-84
2021/09/17 21:01:41;;;;;;;4.68;2.90;;;;;;;;;;5093069;27;20399;-83
2021/09/17 21:04:09;;;;;;;4.30;2.90;;;;;;;;;;5096317;27;20416;-83
2021/09/17 21:06:37;;;;;;;3.58;3.03;;;;;;;;;;5094503;27;20403;-82
2021/09/17 21:09:09;;;;;;;4.47;3.50;;;;;;;;;;5102141;27;20396;-85
2021/09/17 21:11:38;;;;;;;4.30;3.70;;;;;;;;;;5093052;27;20407;-85
2021/09/17 21:14:07;;;;;;;4.22;3.83;;;;;;;;;;5102584;27;20409;-83
2021/09/17 21:16:36;;;;;;;5.18;4.20;;;;;;;;;;5091868;27;20476;-86
2021/09/17 21:19:04;;;;;;;5.30;4.60;;;;;;;;;;5089641;27;20752;-85
2021/09/17 21:21:33;;;;;;;6.65;5.00;;;;;;;;;;5097203;27;20808;-85
2021/09/17 21:24:02;;;;;;;5.53;5.00;;;;;;;;;;5101623;27;20478;-85
2021/09/17 21:26:33;;;;;;;7.00;5.18;;;;;;;;;;5088220;27;20904;-85
2021/09/17 21:29:02;;;;;;;6.07;4.90;;;;;;;;;;5096932;27;20939;-86
2021/09/17 21:31:30;;;;;;;6.82;5.10;;;;;;;;;;5096876;27;20417;-87
2021/09/17 21:33:59;;;;;;;5.93;4.75;;;;;;;;;;5090161;27;20424;-86
2021/09/17 21:36:27;;;;;;;4.63;4.13;;;;;;;;;;5088063;27;20943;-87
2021/09/17 21:38:55;;;;;;;4.78;4.00;;;;;;;;;;5095738;27;20392;-87
2021/09/17 21:41:24;;;;;;;5.35;3.90;;;;;;;;;;5099722;27;20510;-87
2021/09/17 21:43:54;;;;;;;4.60;3.55;;;;;;;;;;5099002;27;20400;-87
2021/09/17 21:46:22;;;;;;;5.10;3.30;;;;;;;;;;5096327;27;20396;-87
2021/09/17 21:48:51;;;;;;;3.92;3.53;;;;;;;;;;5092964;27;20415;-87
2021/09/17 21:51:20;;;;;;;3.90;3.10;;;;;;;;;;5093736;27;20494;-87
2021/09/17 21:53:47;;;;;;;3.67;2.92;;;;;;;;;;5097111;27;20945;-87
2021/09/17 21:56:13;;;;;;;3.30;2.80;;;;;;;;;;5096267;27;20412;-87
2021/09/17 21:58:40;;;;;;;3.10;2.80;;;;;;;;;;5095259;27;20419;-87
2021/09/17 22:01:08;;;;;;;4.78;2.80;;;;;;;;;;5097015;27;20392;-88
2021/09/17 22:03:35;;;;;;;3.85;2.30;;;;;;;;;;5114191;27;20685;-88
2021/09/17 22:06:02;;;;;;;3.10;2.30;;;;;;;;;;5116893;27;20511;-87
2021/09/17 22:08:29;;;;;;;3.07;2.03;;;;;;;;;;5114920;27;20455;-87
2021/09/17 22:10:57;;;;;;;3.53;2.23;;;;;;;;;;5111157;27;20456;-88
2021/09/17 22:13:24;;;;;;;4.18;1.73;;;;;;;;;;5111205;27;20403;-87
2021/09/17 22:15:51;;;;;;;2.37;1.63;;;;;;;;;;5114677;27;20401;-88
2021/09/17 22:18:19;;;;;;;2.50;1.60;;;;;;;;;;5114552;27;20446;-87
2021/09/17 22:20:46;;;;;;;1.85;1.40;;;;;;;;;;5116814;27;20401;-87
2021/09/17 22:23:13;;;;;;;2.33;1.15;;;;;;;;;;5116459;27;20392;-87
2021/09/17 22:25:39;;;;;;;3.00;1.40;;;;;;;;;;5114794;27;20873;-87
2021/09/17 22:28:06;;;;;;;1.20;1.00;;;;;;;;;;5113481;27;20401;-87
2021/09/17 22:30:33;;;;;;;1.90;1.20;;;;;;;;;;5116698;27;20400;-88
2021/09/17 22:33:00;;;;;;;1.25;0.90;;;;;;;;;;5115757;27;20391;-87
2021/09/17 22:35:28;;;;;;;1.90;0.93;;;;;;;;;;5114412;27;20778;-88
2021/09/17 22:37:55;;;;;;;1.40;0.90;;;;;;;;;;5115674;27;20463;-87
2021/09/17 22:40:22;;;;;;;1.23;0.70;;;;;;;;;;5115509;27;20402;-87
2021/09/17 22:42:48;;;;;;;1.58;0.60;;;;;;;;;;5115872;27;20475;-87
2021/09/17 22:45:15;;;;;;;1.98;0.77;;;;;;;;;;5114128;27;20399;-87
2021/09/17 22:47:42;;;;;;;2.33;0.60;;;;;;;;;;5117597;27;20947;-87
2021/09/17 22:50:10;;;;;;;1.35;0.60;;;;;;;;;;5108948;27;20412;-87
2021/09/17 22:52:38;;;;;;;0.90;0.65;;;;;;;;;;5113192;27;20759;-87
2021/09/17 22:55:06;;;;;;;1.05;0.60;;;;;;;;;;5108806;27;20421;-87
2021/09/17 22:57:33;;;;;;;1.50;0.70;;;;;;;;;;5116396;27;20400;-86
2021/09/17 23:00:00;;;;;;;1.75;0.70;;;;;;;;;;5114786;27;20462;-87
2021/09/17 23:02:27;;;;;;;1.77;0.60;;;;;;;;;;5116571;27;20417;-87
2021/09/17 23:04:54;;;;;;;0.70;0.65;;;;;;;;;;5114992;27;20403;-87
2021/09/17 23:07:20;;;;;;;1.30;0.70;;;;;;;;;;5114763;27;20398;-87
2021/09/17 23:09:49;;;;;;;1.27;0.68;;;;;;;;;;5116799;27;20404;-87
2021/09/17 23:12:15;;;;;;;1.30;0.60;;;;;;;;;;5116254;27;20393;-87
2021/09/17 23:14:42;;;;;;;1.17;0.70;;;;;;;;;;5112674;27;20422;-87
2021/09/17 23:17:09;;;;;;;1.00;0.60;;;;;;;;;;5109366;27;20410;-87
2021/09/17 23:19:36;;;;;;;1.10;0.60;;;;;;;;;;5116823;27;20400;-87
2021/09/17 23:22:04;;;;;;;3.00;0.70;;;;;;;;;;5115631;27;20406;-87
2021/09/17 23:24:31;;;;;;;2.45;0.80;;;;;;;;;;5114385;27;20415;-87
2021/09/17 23:26:59;;;;;;;1.15;0.50;;;;;;;;;;5115307;27;20600;-87
2021/09/17 23:29:26;;;;;;;2.20;0.50;;;;;;;;;;5114926;27;20399;-87
2021/09/17 23:31:53;;;;;;;1.40;0.43;;;;;;;;;;5115873;27;20396;-87
2021/09/17 23:34:19;;;;;;;1.48;0.47;;;;;;;;;;5115403;27;20424;-87
2021/09/17 23:36:46;;;;;;;0.68;0.40;;;;;;;;;;5114825;27;20400;-87
2021/09/17 23:39:13;;;;;;;0.90;0.40;;;;;;;;;;5113353;27;20874;-87
2021/09/17 23:41:40;;;;;;;0.80;0.30;;;;;;;;;;5109154;28;20414;-87
2021/09/17 23:44:08;;;;;;;0.60;0.47;;;;;;;;;;5115968;28;20400;-87
2021/09/17 23:46:35;;;;;;;1.77;0.40;;;;;;;;;;5113428;27;20745;-87
2021/09/17 23:49:02;;;;;;;1.30;0.47;;;;;;;;;;5113286;28;20400;-87
2021/09/17 23:51:29;;;;;;;0.63;0.40;;;;;;;;;;5114282;27;20395;-87
2021/09/17 23:53:56;;;;;;;0.40;0.40;;;;;;;;;;5114752;28;20411;-87
2021/09/17 23:56:23;;;;;;;1.20;0.43;;;;;;;;;;5113620;27;20456;-87
2021/09/17 23:58:49;;;;;;;0.40;0.30;;;;;;;;;;5112451;28;20403;-87
